MSC Mars — D5KN4 — position and weather

sailwx.info

Track history (hours):
 
Tides and Currents Weather Stations Pressure Air Temp Water Temp Dewpoint Dewpoint Depression Visibility Wind Speed Wind Dir Waves Ship Positions

MSC Mars

Last reported at 2017-Sep-25 20:32 UTC. Time now 2017-Oct-19 18:44 UTC.
Position N 36°22' E 015°17'.
Warning: this ship's position is 23 days out of date.

Length 324 m; draft 14.3 m.

Type: Ship. MMSI: 636017357.

Date/timePositionNaut miles runAvg speedWind from/ knotsBaromVisibWave heightAir tempDewpointWater temp
2017-Sep-25 20:32N 36°22' E 015°17'118.2
2017-Sep-25 20:30N 36°23' E 015°16'1118.7
2017-Sep-25 19:55N 36°25' E 015°03'1418.9
2017-Sep-25 19:11N 36°28' E 014°46'318.8
2017-Sep-25 19:00N 36°28' E 014°42'918.6
2017-Sep-25 18:30N 36°30' E 014°31'1019.2
2017-Sep-25 18:00N 36°32' E 014°19'1019.5
2017-Sep-25 17:30N 36°34' E 014°07'1019.6
2017-Sep-25 17:00N 36°37' E 013°56'1020.1
2017-Sep-25 16:30N 36°40' E 013°44'1019.7
2017-Sep-25 16:00N 36°42' E 013°32'1019.4
2017-Sep-25 15:30N 36°44' E 013°20'1519.3
2017-Sep-25 14:45N 36°47' E 013°02'619.1
2017-Sep-25 14:25N 36°48' E 012°54'38919.6
2017-Sep-24 18:32N 39°49' E 005°35'119.9
2017-Sep-24 18:28N 39°50' E 005°33'919.9
2017-Sep-24 18:01N 39°55' E 005°23'1019.7
2017-Sep-24 17:30N 39°59' E 005°12'1019.5
2017-Sep-24 17:00N 40°04' E 005°00'1219.6
2017-Sep-24 16:25N 40°10' E 004°47'1119.8
2017-Sep-24 15:53N 40°15' E 004°35'1119.7
2017-Sep-24 15:20N 40°20' E 004°23'1019.6
2017-Sep-24 14:50N 40°25' E 004°12'3619.7
2017-Sep-24 13:00N 40°42' E 003°30'1019.8
2017-Sep-24 12:30N 40°47' E 003°19'1019.6
2017-Sep-24 12:01N 40°52' E 003°08'1019.3
2017-Sep-24 11:30N 40°57' E 002°56'1019.6
2017-Sep-24 11:00N 41°02' E 002°45'1019.7
2017-Sep-24 10:30N 41°07' E 002°34'1119.4
2017-Sep-24 09:56N 41°12' E 002°21'817.6
2017-Sep-24 09:30N 41°16' E 002°12'4 7.2
2017-Sep-24 08:59N 41°19' E 002°09'1 0.5
2017-Sep-24 07:23N 41°18' E 002°09'0 0.0
2017-Sep-24 06:59N 41°18' E 002°09'0 0.0
2017-Sep-24 06:11N 41°18' E 002°09'0 0.1
2017-Sep-24 05:59N 41°18' E 002°09'0 0.0
2017-Sep-23 22:37N 41°18' E 002°09'0 0.0
2017-Sep-23 22:29N 41°18' E 002°09'0 0.0
2017-Sep-23 21:57N 41°18' E 002°09'0 0.0
2017-Sep-23 21:26N 41°18' E 002°09'0 0.0
2017-Sep-23 20:58N 41°18' E 002°09'0 0.0
2017-Sep-23 20:10N 41°18' E 002°09'0 0.0
2017-Sep-23 19:55N 41°18' E 002°09'  
2017-Sep-21 13:50N 36°04' W 007°06'1019.4
2017-Sep-21 13:18N 36°07' W 007°18'619.1
2017-Sep-21 12:58N 36°08' W 007°26'919.3
2017-Sep-21 12:30N 36°10' W 007°37'1019.3
2017-Sep-21 12:00N 36°12' W 007°48'1119.8
2017-Sep-21 11:28N 36°15' W 008°01'920.1
2017-Sep-21 11:00N 36°17' W 008°12'1020.2
2017-Sep-21 10:30N 36°20' W 008°24'1020.1
2017-Sep-21 10:00N 36°22' W 008°36'1020.2
2017-Sep-21 09:30N 36°24' W 008°49'1019.8
2017-Sep-21 09:00N 36°26' W 009°01'1020.0
2017-Sep-21 08:30N 36°28' W 009°13'1020.2
2017-Sep-21 08:00N 36°30' W 009°25'1019.8
2017-Sep-21 07:30N 36°32' W 009°37'1319.5
2017-Sep-21 06:50N 36°35' W 009°53'1419.1
2017-Sep-21 06:07N 36°38' W 010°10'219.1
2017-Sep-21 06:00N 36°38' W 010°12'1019.3
2017-Sep-21 05:30N 36°40' W 010°24'1219.6
2017-Sep-21 04:53N 36°42' W 010°39'819.5
2017-Sep-21 04:28N 36°44' W 010°49'1019.9
2017-Sep-21 03:59N 36°46' W 011°01'1019.8
2017-Sep-21 03:28N 36°48' W 011°14'919.2
2017-Sep-21 03:00N 36°50' W 011°25'1319.2
2017-Sep-21 02:21N 36°52' W 011°40'3419.8
2017-Sep-21 00:39N 36°59' W 012°21'520.5
2017-Sep-21 00:25N 36°59' W 012°27'1020.2
2017-Sep-20 23:54N 37°01' W 012°40'920.2
2017-Sep-20 23:28N 37°03' W 012°51'1220.3
2017-Sep-20 22:52N 37°05' W 013°06'719.9
2017-Sep-20 22:30N 37°06' W 013°15'50220.3
2017-Sep-19 21:49N 38°07' W 023°44'620.5
2017-Sep-19 21:30N 38°07' W 023°52'1020.3
2017-Sep-19 21:00N 38°08' W 024°04'1020.3
2017-Sep-19 20:31N 38°08' W 024°17'1020.4
2017-Sep-19 20:00N 38°09' W 024°30'1020.5
2017-Sep-19 19:30N 38°09' W 024°43'1020.3
2017-Sep-19 19:01N 38°09' W 024°56'1020.3
2017-Sep-19 18:30N 38°09' W 025°09'1020.3
2017-Sep-19 18:00N 38°09' W 025°22'1020.0
2017-Sep-19 17:30N 38°09' W 025°35'1020.2
2017-Sep-19 17:00N 38°08' W 025°48'1020.5
2017-Sep-19 16:30N 38°08' W 026°01'1020.3
2017-Sep-19 16:00N 38°08' W 026°13'1020.1
2017-Sep-19 15:30N 38°06' W 026°26'1020.5
2017-Sep-19 15:00N 38°05' W 026°39'1020.4
2017-Sep-19 14:30N 38°04' W 026°52'1020.4
2017-Sep-19 14:00N 38°02' W 027°05'1020.7
2017-Sep-19 13:30N 38°01' W 027°18'1020.2
2017-Sep-19 13:00N 37°59' W 027°30'1020.3
2017-Sep-19 12:30N 37°58' W 027°43'1020.5
2017-Sep-19 12:00N 37°59' W 027°56'1020.1
2017-Sep-19 11:30N 37°59' W 028°09'1019.9
2017-Sep-19 11:01N 37°59' W 028°22'1020.5
2017-Sep-19 10:30N 37°59' W 028°35'1020.0
2017-Sep-19 10:00N 37°59' W 028°47'1019.9
2017-Sep-19 09:31N 37°59' W 028°60'1020.2
2017-Sep-19 09:00N 37°59' W 029°13'1020.4
2017-Sep-19 08:30N 37°59' W 029°26'1020.4
2017-Sep-19 08:01N 37°60' W 029°39'1019.9
2017-Sep-19 07:30N 37°60' W 029°51'1019.9
2017-Sep-19 07:00N 37°60' W 030°04'1020.0
2017-Sep-19 06:30N 37°60' W 030°17'1020.3
2017-Sep-19 06:00N 37°60' W 030°29'1019.9
2017-Sep-19 05:30N 37°60' W 030°42'1219.7
2017-Sep-19 04:53N 37°60' W 030°58'2120.1
2017-Sep-19 03:50N 37°59' W 031°24'720.1
2017-Sep-19 03:29N 37°59' W 031°33'  
Track history (hours):
 
Tides and Currents Weather Stations Pressure Air Temp Water Temp Dewpoint Dewpoint Depression Visibility Wind Speed Wind Dir Waves Ship Positions

MSC Mars

Last reported at 2017-Sep-25 20:32 UTC. Time now 2017-Oct-19 18:44 UTC.
Position N 36°22' E 015°17'.
Warning: this ship's position is 23 days out of date.

Length 324 m; draft 14.3 m.

Type: Ship. MMSI: 636017357.

Date/timePositionNaut miles runAvg speedWind from/ knotsBaromVisibWave heightAir tempDewpointWater temp
2017-Sep-25 20:32N 36°22' E 015°17'118.2
2017-Sep-25 20:30N 36°23' E 015°16'1118.7
2017-Sep-25 19:55N 36°25' E 015°03'1418.9
2017-Sep-25 19:11N 36°28' E 014°46'318.8
2017-Sep-25 19:00N 36°28' E 014°42'918.6
2017-Sep-25 18:30N 36°30' E 014°31'1019.2
2017-Sep-25 18:00N 36°32' E 014°19'1019.5
2017-Sep-25 17:30N 36°34' E 014°07'1019.6
2017-Sep-25 17:00N 36°37' E 013°56'1020.1
2017-Sep-25 16:30N 36°40' E 013°44'1019.7
2017-Sep-25 16:00N 36°42' E 013°32'1019.4
2017-Sep-25 15:30N 36°44' E 013°20'1519.3
2017-Sep-25 14:45N 36°47' E 013°02'619.1
2017-Sep-25 14:25N 36°48' E 012°54'38919.6
2017-Sep-24 18:32N 39°49' E 005°35'119.9
2017-Sep-24 18:28N 39°50' E 005°33'919.9
2017-Sep-24 18:01N 39°55' E 005°23'1019.7
2017-Sep-24 17:30N 39°59' E 005°12'1019.5
2017-Sep-24 17:00N 40°04' E 005°00'1219.6
2017-Sep-24 16:25N 40°10' E 004°47'1119.8
2017-Sep-24 15:53N 40°15' E 004°35'1119.7
2017-Sep-24 15:20N 40°20' E 004°23'1019.6
2017-Sep-24 14:50N 40°25' E 004°12'3619.7
2017-Sep-24 13:00N 40°42' E 003°30'1019.8
2017-Sep-24 12:30N 40°47' E 003°19'1019.6
2017-Sep-24 12:01N 40°52' E 003°08'1019.3
2017-Sep-24 11:30N 40°57' E 002°56'1019.6
2017-Sep-24 11:00N 41°02' E 002°45'1019.7
2017-Sep-24 10:30N 41°07' E 002°34'1119.4
2017-Sep-24 09:56N 41°12' E 002°21'817.6
2017-Sep-24 09:30N 41°16' E 002°12'4 7.2
2017-Sep-24 08:59N 41°19' E 002°09'1 0.5
2017-Sep-24 07:23N 41°18' E 002°09'0 0.0
2017-Sep-24 06:59N 41°18' E 002°09'0 0.0
2017-Sep-24 06:11N 41°18' E 002°09'0 0.1
2017-Sep-24 05:59N 41°18' E 002°09'0 0.0
2017-Sep-23 22:37N 41°18' E 002°09'0 0.0
2017-Sep-23 22:29N 41°18' E 002°09'0 0.0
2017-Sep-23 21:57N 41°18' E 002°09'0 0.0
2017-Sep-23 21:26N 41°18' E 002°09'0 0.0
2017-Sep-23 20:58N 41°18' E 002°09'0 0.0
2017-Sep-23 20:10N 41°18' E 002°09'0 0.0
2017-Sep-23 19:55N 41°18' E 002°09'  
2017-Sep-21 13:50N 36°04' W 007°06'1019.4
2017-Sep-21 13:18N 36°07' W 007°18'619.1
2017-Sep-21 12:58N 36°08' W 007°26'919.3
2017-Sep-21 12:30N 36°10' W 007°37'1019.3
2017-Sep-21 12:00N 36°12' W 007°48'1119.8
2017-Sep-21 11:28N 36°15' W 008°01'920.1
2017-Sep-21 11:00N 36°17' W 008°12'1020.2
2017-Sep-21 10:30N 36°20' W 008°24'1020.1
2017-Sep-21 10:00N 36°22' W 008°36'1020.2
2017-Sep-21 09:30N 36°24' W 008°49'1019.8
2017-Sep-21 09:00N 36°26' W 009°01'1020.0
2017-Sep-21 08:30N 36°28' W 009°13'1020.2
2017-Sep-21 08:00N 36°30' W 009°25'1019.8
2017-Sep-21 07:30N 36°32' W 009°37'1319.5
2017-Sep-21 06:50N 36°35' W 009°53'1419.1
2017-Sep-21 06:07N 36°38' W 010°10'219.1
2017-Sep-21 06:00N 36°38' W 010°12'1019.3
2017-Sep-21 05:30N 36°40' W 010°24'1219.6
2017-Sep-21 04:53N 36°42' W 010°39'819.5
2017-Sep-21 04:28N 36°44' W 010°49'1019.9
2017-Sep-21 03:59N 36°46' W 011°01'1019.8
2017-Sep-21 03:28N 36°48' W 011°14'919.2
2017-Sep-21 03:00N 36°50' W 011°25'1319.2
2017-Sep-21 02:21N 36°52' W 011°40'3419.8
2017-Sep-21 00:39N 36°59' W 012°21'520.5
2017-Sep-21 00:25N 36°59' W 012°27'1020.2
2017-Sep-20 23:54N 37°01' W 012°40'920.2
2017-Sep-20 23:28N 37°03' W 012°51'1220.3
2017-Sep-20 22:52N 37°05' W 013°06'719.9
2017-Sep-20 22:30N 37°06' W 013°15'50220.3
2017-Sep-19 21:49N 38°07' W 023°44'620.5
2017-Sep-19 21:30N 38°07' W 023°52'1020.3
2017-Sep-19 21:00N 38°08' W 024°04'1020.3
2017-Sep-19 20:31N 38°08' W 024°17'1020.4
2017-Sep-19 20:00N 38°09' W 024°30'1020.5
2017-Sep-19 19:30N 38°09' W 024°43'1020.3
2017-Sep-19 19:01N 38°09' W 024°56'1020.3
2017-Sep-19 18:30N 38°09' W 025°09'1020.3
2017-Sep-19 18:00N 38°09' W 025°22'1020.0
2017-Sep-19 17:30N 38°09' W 025°35'1020.2
2017-Sep-19 17:00N 38°08' W 025°48'1020.5
2017-Sep-19 16:30N 38°08' W 026°01'1020.3
2017-Sep-19 16:00N 38°08' W 026°13'1020.1
2017-Sep-19 15:30N 38°06' W 026°26'1020.5
2017-Sep-19 15:00N 38°05' W 026°39'1020.4
2017-Sep-19 14:30N 38°04' W 026°52'1020.4
2017-Sep-19 14:00N 38°02' W 027°05'1020.7
2017-Sep-19 13:30N 38°01' W 027°18'1020.2
2017-Sep-19 13:00N 37°59' W 027°30'1020.3
2017-Sep-19 12:30N 37°58' W 027°43'1020.5
2017-Sep-19 12:00N 37°59' W 027°56'1020.1
2017-Sep-19 11:30N 37°59' W 028°09'1019.9
2017-Sep-19 11:01N 37°59' W 028°22'1020.5
2017-Sep-19 10:30N 37°59' W 028°35'1020.0
2017-Sep-19 10:00N 37°59' W 028°47'1019.9
2017-Sep-19 09:31N 37°59' W 028°60'1020.2
2017-Sep-19 09:00N 37°59' W 029°13'1020.4
2017-Sep-19 08:30N 37°59' W 029°26'1020.4
2017-Sep-19 08:01N 37°60' W 029°39'1019.9
2017-Sep-19 07:30N 37°60' W 029°51'1019.9
2017-Sep-19 07:00N 37°60' W 030°04'1020.0
2017-Sep-19 06:30N 37°60' W 030°17'1020.3
2017-Sep-19 06:00N 37°60' W 030°29'1019.9
2017-Sep-19 05:30N 37°60' W 030°42'1219.7
2017-Sep-19 04:53N 37°60' W 030°58'2120.1
2017-Sep-19 03:50N 37°59' W 031°24'720.1
2017-Sep-19 03:29N 37°59' W 031°33'  

Dump ship's entire track history